createdAt,value
2019-04-06T00:00:57.914Z,4.58
2019-04-06T00:03:25.985Z,5.10
2019-04-06T00:05:54.053Z,5.28
2019-04-06T00:08:22.129Z,5.12
2019-04-06T00:10:50.374Z,5.22
2019-04-06T00:13:18.452Z,5.67
2019-04-06T00:15:46.571Z,6.03
2019-04-06T00:18:14.663Z,5.90
2019-04-06T00:20:42.778Z,5.70
2019-04-06T00:23:10.957Z,6.83
2019-04-06T00:25:44.231Z,6.28
2019-04-06T00:28:08.967Z,5.72
2019-04-06T00:30:45.248Z,6.53
2019-04-06T00:33:15.710Z,5.55
2019-04-06T00:35:43.766Z,6.10
2019-04-06T00:38:11.857Z,5.45
2019-04-06T00:40:39.960Z,5.80
2019-04-06T00:43:08.040Z,5.60
2019-04-06T00:45:36.232Z,5.87
2019-04-06T00:48:04.331Z,6.30
2019-04-06T00:50:32.386Z,6.25
2019-04-06T00:53:00.485Z,5.83
2019-04-06T00:55:28.553Z,6.03
2019-04-06T00:57:56.633Z,6.83
2019-04-06T01:00:24.709Z,6.72
2019-04-06T01:02:52.769Z,6.37
2019-04-06T01:05:20.897Z,6.03
2019-04-06T01:07:49.080Z,6.12
2019-04-06T01:10:17.173Z,6.42
2019-04-06T01:12:45.272Z,6.28
2019-04-06T01:15:13.384Z,6.20
2019-04-06T01:17:41.542Z,5.85
2019-04-06T01:20:09.610Z,6.25
2019-04-06T01:22:37.675Z,5.87
2019-04-06T01:25:06.045Z,6.25
2019-04-06T01:27:34.144Z,6.60
2019-04-06T01:30:02.259Z,6.65
2019-04-06T01:32:30.426Z,6.33
2019-04-06T01:34:58.597Z,6.22
2019-04-06T01:37:26.672Z,6.50
2019-04-06T01:39:54.786Z,7.10
2019-04-06T01:42:22.962Z,6.15
2019-04-06T01:44:51.032Z,7.45
2019-04-06T01:47:19.136Z,7.08
2019-04-06T01:49:47.277Z,6.00
2019-04-06T01:52:15.427Z,7.12
2019-04-06T01:54:43.484Z,6.87
2019-04-06T01:57:11.578Z,6.83
2019-04-06T01:59:39.640Z,7.08
2019-04-06T02:02:19.014Z,6.22
2019-04-06T02:04:47.077Z,7.05
2019-04-06T02:07:15.156Z,6.22
2019-04-06T02:09:43.312Z,7.70
2019-04-06T02:12:11.447Z,7.17
2019-04-06T02:14:39.522Z,7.15
2019-04-06T02:17:07.618Z,6.45
2019-04-06T02:19:35.721Z,6.47
2019-04-06T02:22:03.784Z,6.95
2019-04-06T02:24:31.861Z,6.25
2019-04-06T02:26:59.912Z,6.85
2019-04-06T02:29:27.946Z,6.80
2019-04-06T02:32:13.252Z,6.70
2019-04-06T02:38:01.817Z,6.75
2019-04-06T02:40:37.929Z,6.20
2019-04-06T02:43:26.806Z,6.65
2019-04-06T02:45:55.138Z,6.90
2019-04-06T02:48:23.248Z,6.10
2019-04-06T02:50:51.399Z,5.80
2019-04-06T02:53:19.442Z,6.80
2019-04-06T02:55:47.493Z,6.90
2019-04-06T02:58:15.572Z,7.00
2019-04-06T03:00:43.876Z,7.58
2019-04-06T03:03:11.957Z,6.15
2019-04-06T03:05:40.076Z,7.22
2019-04-06T03:08:08.278Z,6.45
2019-04-06T03:10:36.348Z,6.62
2019-04-06T03:13:04.456Z,7.08
2019-04-06T03:15:32.549Z,6.87
2019-04-06T03:18:00.666Z,6.75
2019-04-06T03:20:28.784Z,6.53
2019-04-06T03:22:56.815Z,7.17
2019-04-06T03:25:25.176Z,6.90
2019-04-06T03:27:53.256Z,6.60
2019-04-06T03:30:21.439Z,6.70
2019-04-06T03:32:49.469Z,7.10
2019-04-06T03:35:17.548Z,7.00
2019-04-06T03:37:45.577Z,6.85
2019-04-06T03:40:13.629Z,6.80
2019-04-06T03:42:41.727Z,7.33
2019-04-06T03:45:09.758Z,7.00
2019-04-06T03:47:37.807Z,8.38
2019-04-06T03:50:05.892Z,7.10
2019-04-06T03:52:33.998Z,7.40
2019-04-06T03:55:02.027Z,6.90
2019-04-06T03:57:30.132Z,7.97
2019-04-06T03:59:58.222Z,7.60
2019-04-06T04:02:26.271Z,7.65
2019-04-06T04:04:54.350Z,8.05
2019-04-06T04:07:22.421Z,8.18
2019-04-06T04:09:50.543Z,7.72
2019-04-06T04:12:18.622Z,8.75
2019-04-06T04:14:46.663Z,7.78
2019-04-06T04:17:14.700Z,8.60
2019-04-06T04:19:42.760Z,8.38
2019-04-06T04:22:10.862Z,8.68
2019-04-06T04:24:38.942Z,7.87
2019-04-06T04:27:06.973Z,7.95
2019-04-06T04:29:35.012Z,8.58
2019-04-06T04:32:03.069Z,8.15
2019-04-06T04:34:31.100Z,8.23
2019-04-06T04:36:59.121Z,7.90
2019-04-06T04:39:27.171Z,8.63
2019-04-06T04:41:55.216Z,8.70
2019-04-06T04:44:23.219Z,9.30
2019-04-06T04:46:51.285Z,9.28
2019-04-06T04:49:19.388Z,8.68
2019-04-06T04:51:47.700Z,8.70
2019-04-06T04:54:16.083Z,8.30
2019-04-06T04:56:44.138Z,9.60
2019-04-06T04:59:12.169Z,9.13
2019-04-06T05:01:40.438Z,9.60
2019-04-06T05:04:08.479Z,9.10
2019-04-06T05:06:36.540Z,9.05
2019-04-06T05:09:05.636Z,9.15
2019-04-06T05:11:33.842Z,10.13
2019-04-06T05:14:01.895Z,8.85
2019-04-06T05:16:30.074Z,9.10
2019-04-06T05:18:58.043Z,9.48
2019-04-06T05:21:26.149Z,9.15
2019-04-06T05:23:54.242Z,10.45
2019-04-06T05:26:22.276Z,9.08
2019-04-06T05:28:50.318Z,8.28
2019-04-06T05:31:18.336Z,7.75
2019-04-06T05:33:46.374Z,7.55
2019-04-06T05:36:14.486Z,7.40
2019-04-06T05:38:42.548Z,7.60
2019-04-06T05:41:10.662Z,7.25
2019-04-06T05:43:38.678Z,8.45
2019-04-06T05:46:06.734Z,7.60
2019-04-06T05:48:36.828Z,7.30
2019-04-06T05:51:04.613Z,7.33
2019-04-06T05:53:32.999Z,7.00
2019-04-06T05:56:01.069Z,6.65
2019-04-06T05:58:29.243Z,6.22
2019-04-06T06:00:57.299Z,6.80
2019-04-06T06:03:25.378Z,6.53
2019-04-06T06:05:53.392Z,6.65
2019-04-06T06:08:21.420Z,6.08
2019-04-06T06:10:49.578Z,6.10
2019-04-06T06:13:17.813Z,6.92
2019-04-06T06:15:45.843Z,6.47
2019-04-06T06:18:14.132Z,6.60
2019-04-06T06:20:43.666Z,6.40
2019-04-06T06:23:11.691Z,6.42
2019-04-06T06:25:39.747Z,7.12
2019-04-06T06:28:14.480Z,7.30
2019-04-06T06:30:37.714Z,9.25
2019-04-06T06:33:05.771Z,11.95
2019-04-06T06:35:33.754Z,11.38
2019-04-06T06:38:01.799Z,12.60
2019-04-06T06:40:29.882Z,11.83
2019-04-06T06:42:58.014Z,12.60
2019-04-06T06:45:26.020Z,13.60
2019-04-06T06:47:54.075Z,14.73
2019-04-06T06:50:22.247Z,15.90
2019-04-06T06:52:50.359Z,16.30
2019-04-06T06:55:18.389Z,15.88
2019-04-06T06:57:46.622Z,16.73
2019-04-06T07:00:14.635Z,16.07
2019-04-06T07:02:42.733Z,16.95
2019-04-06T07:05:10.781Z,15.98
2019-04-06T07:07:38.816Z,16.65
2019-04-06T07:10:06.994Z,16.80
2019-04-06T07:12:35.016Z,17.98
2019-04-06T07:15:03.241Z,17.05
2019-04-06T07:17:31.514Z,16.45
2019-04-06T07:19:59.535Z,17.40
2019-04-06T07:22:27.557Z,17.23
2019-04-06T07:24:55.753Z,17.23
2019-04-06T07:27:23.776Z,17.67
2019-04-06T07:29:51.824Z,19.65
2019-04-06T07:32:19.872Z,18.27
2019-04-06T07:34:47.896Z,18.45
2019-04-06T07:37:16.228Z,19.02
2019-04-06T07:39:44.279Z,19.50
2019-04-06T07:42:12.304Z,19.27
2019-04-06T07:44:40.538Z,19.20
2019-04-06T07:47:08.590Z,19.00
2019-04-06T07:49:36.797Z,16.75
2019-04-06T07:52:04.803Z,15.68
2019-04-06T07:54:32.886Z,15.35
2019-04-06T07:57:01.009Z,15.08
2019-04-06T07:59:32.482Z,14.70
2019-04-06T08:02:00.493Z,15.95
2019-04-06T08:04:28.494Z,15.43
2019-04-06T08:06:56.837Z,15.35
2019-04-06T08:09:24.919Z,16.17
2019-04-06T08:11:52.946Z,15.85
2019-04-06T08:14:20.967Z,17.05
2019-04-06T08:16:49.184Z,18.98
2019-04-06T08:19:17.597Z,17.02
2019-04-06T08:21:45.755Z,17.77
2019-04-06T08:24:13.980Z,17.73
2019-04-06T08:26:42.050Z,17.48
2019-04-06T08:29:10.079Z,16.15
2019-04-06T08:31:38.260Z,14.85
2019-04-06T08:34:06.308Z,15.30
2019-04-06T08:36:37.343Z,15.53
2019-04-06T08:39:06.250Z,15.35
2019-04-06T08:41:34.266Z,16.30
2019-04-06T08:44:02.309Z,14.87
2019-04-06T08:46:30.579Z,16.05
2019-04-06T08:48:58.987Z,15.28
2019-04-06T08:51:26.995Z,15.05
2019-04-06T08:53:55.344Z,15.30
2019-04-06T08:56:23.398Z,14.93
2019-04-06T08:58:51.707Z,15.00
2019-04-06T09:01:19.882Z,15.35
2019-04-06T09:03:48.141Z,15.30
2019-04-06T09:06:16.474Z,14.73
2019-04-06T09:08:44.567Z,14.75
2019-04-06T09:11:12.627Z,14.63
2019-04-06T09:13:40.793Z,14.80
2019-04-06T09:16:09.150Z,15.10
2019-04-06T09:18:37.327Z,14.73
2019-04-06T09:21:05.345Z,14.43
2019-04-06T09:23:33.411Z,15.80
2019-04-06T09:26:01.578Z,14.93
2019-04-06T09:28:29.880Z,14.87
2019-04-06T09:30:57.934Z,14.98
2019-04-06T09:33:26.011Z,13.85
2019-04-06T09:35:54.159Z,12.98
2019-04-06T09:38:22.542Z,13.78
2019-04-06T09:40:50.893Z,14.83
2019-04-06T09:43:18.990Z,13.70
2019-04-06T09:46:04.582Z,14.45
2019-04-06T09:48:41.931Z,14.18
2019-04-06T09:51:37.702Z,13.03
2019-04-06T09:54:25.061Z,14.13
2019-04-06T09:57:04.277Z,14.30
2019-04-06T09:59:49.725Z,13.78
2019-04-06T10:02:36.611Z,14.10
2019-04-06T10:05:13.671Z,13.93
2019-04-06T10:08:09.315Z,13.98
2019-04-06T10:11:01.922Z,13.80
2019-04-06T10:13:41.222Z,13.65
2019-04-06T10:16:30.863Z,14.23
2019-04-06T10:19:20.423Z,15.40
2019-04-06T10:22:06.811Z,13.83
2019-04-06T10:24:42.903Z,14.45
2019-04-06T10:27:37.923Z,14.18
2019-04-06T10:30:27.604Z,15.65
2019-04-06T10:33:09.760Z,15.63
2019-04-06T10:35:59.692Z,15.03
2019-04-06T10:38:40.491Z,15.78
2019-04-06T10:41:28.382Z,15.08
2019-04-06T10:44:21.001Z,15.68
2019-04-06T10:47:03.919Z,15.72
2019-04-06T10:49:53.571Z,15.85
2019-04-06T10:52:38.721Z,16.37
2019-04-06T10:55:24.208Z,15.18
2019-04-06T10:58:20.213Z,14.20
2019-04-06T11:01:22.124Z,14.53
2019-04-06T11:03:55.496Z,14.60
2019-04-06T11:06:48.298Z,16.23
2019-04-06T11:09:29.273Z,15.43
2019-04-06T11:12:19.392Z,15.38
2019-04-06T11:15:15.124Z,16.35
2019-04-06T11:18:02.313Z,16.65
2019-04-06T11:20:49.437Z,15.05
2019-04-06T11:23:34.909Z,14.98
2019-04-06T11:26:30.900Z,16.07
2019-04-06T11:29:23.676Z,16.77
2019-04-06T11:32:16.684Z,15.45
2019-04-06T11:35:00.376Z,16.70
2019-04-06T11:37:48.079Z,17.42
2019-04-06T11:40:22.950Z,16.50
2019-04-06T11:43:01.781Z,17.17
2019-04-06T11:45:48.046Z,17.75
2019-04-06T11:48:38.731Z,16.62
2019-04-06T11:51:28.308Z,18.12
2019-04-06T11:54:15.119Z,17.60
2019-04-06T11:56:50.532Z,17.10
2019-04-06T11:59:36.023Z,17.07
2019-04-06T12:02:21.774Z,17.10
2019-04-06T12:05:23.763Z,17.35
2019-04-06T12:08:07.125Z,16.25
2019-04-06T12:10:54.244Z,16.57
2019-04-06T12:13:44.442Z,14.78
2019-04-06T12:16:46.589Z,14.00
2019-04-06T12:19:33.505Z,13.13
2019-04-06T12:22:10.984Z,12.03
2019-04-06T12:25:07.102Z,10.35
2019-04-06T12:27:54.742Z,12.18
2019-04-06T12:30:37.302Z,12.55
2019-04-06T12:33:15.774Z,12.90
2019-04-06T12:36:10.390Z,12.68
2019-04-06T12:38:55.879Z,13.90
2019-04-06T12:41:41.069Z,13.78
2019-04-06T12:44:24.175Z,15.93
2019-04-06T12:47:20.529Z,15.08
2019-04-06T12:50:07.524Z,15.98
2019-04-06T12:52:51.444Z,15.38
2019-04-06T12:55:28.429Z,14.90
2019-04-06T12:58:18.388Z,14.85
2019-04-06T13:00:56.221Z,14.78
2019-04-06T13:03:52.368Z,14.58
2019-04-06T13:06:41.995Z,14.20
2019-04-06T13:09:31.951Z,14.63
2019-04-06T13:12:08.092Z,14.20
2019-04-06T13:14:45.698Z,13.88
2019-04-06T13:17:21.782Z,13.88
2019-04-06T13:20:01.557Z,14.05
2019-04-06T13:22:47.940Z,14.68
2019-04-06T13:25:24.756Z,13.53
2019-04-06T13:28:05.906Z,12.95
2019-04-06T13:31:02.570Z,13.15
2019-04-06T13:33:53.287Z,13.83
2019-04-06T13:36:38.854Z,13.35
2019-04-06T13:39:31.726Z,14.15
2019-04-06T13:42:24.637Z,15.58
2019-04-06T13:45:11.617Z,14.50
2019-04-06T13:47:57.064Z,16.27
2019-04-06T13:50:56.043Z,13.68
2019-04-06T13:53:33.599Z,15.08
2019-04-06T13:56:26.485Z,15.13
2019-04-06T13:59:09.755Z,15.53
2019-04-06T14:02:05.529Z,14.25
2019-04-06T14:04:52.465Z,14.98
2019-04-06T14:07:54.467Z,14.47
2019-04-06T14:10:41.910Z,14.25
2019-04-06T14:13:37.865Z,14.30
2019-04-06T14:16:23.326Z,14.43
2019-04-06T14:19:09.965Z,14.15
2019-04-06T14:21:46.482Z,14.25
2019-04-06T14:24:43.801Z,13.75
2019-04-06T14:27:33.391Z,13.70
2019-04-06T14:30:20.264Z,14.20
2019-04-06T14:33:09.836Z,13.68
2019-04-06T14:36:01.318Z,14.05
2019-04-06T14:38:48.114Z,14.38
2019-04-06T14:41:49.985Z,14.13
2019-04-06T14:44:39.827Z,13.85
2019-04-06T14:47:42.000Z,12.95
2019-04-06T14:50:35.222Z,14.23
2019-04-06T14:53:16.530Z,13.72
2019-04-06T14:56:09.407Z,12.98
2019-04-06T14:59:14.206Z,12.90
2019-04-06T15:02:06.655Z,13.48
2019-04-06T15:05:02.409Z,13.15
2019-04-06T15:07:47.987Z,13.83
2019-04-06T15:10:37.381Z,13.65
2019-04-06T15:13:32.621Z,13.78
2019-04-06T15:16:22.124Z,13.25
2019-04-06T15:19:00.608Z,14.75
2019-04-06T15:21:41.534Z,13.80
2019-04-06T15:24:44.057Z,13.60
2019-04-06T15:27:39.978Z,13.65
2019-04-06T15:30:23.678Z,13.98
2019-04-06T15:33:20.076Z,13.95
2019-04-06T15:36:18.987Z,13.30
2019-04-06T15:39:05.832Z,13.80
2019-04-06T15:41:55.368Z,12.98
2019-04-06T15:44:43.889Z,12.80
2019-04-06T15:47:29.954Z,12.65
2019-04-06T15:50:19.718Z,13.22
2019-04-06T15:53:05.214Z,12.37
2019-04-06T15:55:51.051Z,12.37
2019-04-06T15:58:40.964Z,12.35
2019-04-06T16:01:17.554Z,13.35
2019-04-06T16:04:07.398Z,12.60
2019-04-06T16:07:00.842Z,16.07
2019-04-06T16:09:56.663Z,17.65
2019-04-06T16:12:30.976Z,18.82
2019-04-06T16:15:17.772Z,19.05
2019-04-06T16:18:06.052Z,18.42
2019-04-06T16:20:59.619Z,16.05
2019-04-06T16:23:36.147Z,15.98
2019-04-06T16:26:29.161Z,15.80
2019-04-06T16:29:21.778Z,15.98
2019-04-06T16:32:13.295Z,15.32
2019-04-06T16:35:06.579Z,15.03
2019-04-06T16:38:02.191Z,13.98
2019-04-06T16:40:48.611Z,15.18
2019-04-06T16:43:38.806Z,14.40
2019-04-06T16:46:25.826Z,14.45
2019-04-06T16:49:11.889Z,15.10
2019-04-06T16:52:10.090Z,18.17
2019-04-06T16:54:56.870Z,18.02
2019-04-06T16:57:52.720Z,18.52
2019-04-06T17:00:38.114Z,18.20
2019-04-06T17:03:31.222Z,17.57
2019-04-06T17:06:23.701Z,17.92
2019-04-06T17:09:29.252Z,15.68
2019-04-06T17:12:28.335Z,15.70
2019-04-06T17:15:06.267Z,15.53
2019-04-06T17:18:02.395Z,14.80
2019-04-06T17:20:47.758Z,13.65
2019-04-06T17:23:52.677Z,13.70
2019-04-06T17:26:40.055Z,14.13
2019-04-06T17:29:17.751Z,15.15
2019-04-06T17:32:07.457Z,15.13
2019-04-06T17:34:53.476Z,15.38
2019-04-06T17:37:26.017Z,15.23
2019-04-06T17:40:22.224Z,15.83
2019-04-06T17:43:07.760Z,15.70
2019-04-06T17:46:00.409Z,15.63
2019-04-06T17:48:46.371Z,15.60
2019-04-06T17:51:29.936Z,14.65
2019-04-06T17:54:16.766Z,16.42
2019-04-06T17:56:57.072Z,16.73
2019-04-06T17:59:43.154Z,15.95
2019-04-06T18:02:30.164Z,17.70
2019-04-06T18:05:16.196Z,18.67
2019-04-06T18:08:15.460Z,18.07
2019-04-06T18:11:00.853Z,19.82
2019-04-06T18:13:59.831Z,20.88
2019-04-06T18:16:34.238Z,22.73
2019-04-06T18:19:02.722Z,21.75
2019-04-06T18:21:31.134Z,23.65
2019-04-06T18:23:59.226Z,24.70
2019-04-06T18:26:27.878Z,23.90
2019-04-06T18:28:56.244Z,24.47
2019-04-06T18:31:37.193Z,24.55
2019-04-06T18:34:05.284Z,24.50
2019-04-06T18:36:50.642Z,25.72
2019-04-06T18:39:19.463Z,26.87
2019-04-06T18:41:47.560Z,27.02
2019-04-06T18:44:15.657Z,27.75
2019-04-06T18:46:43.817Z,28.05
2019-04-06T18:49:12.482Z,28.20
2019-04-06T18:51:41.019Z,30.48
2019-04-06T18:54:09.872Z,29.70
2019-04-06T18:56:38.002Z,30.48
2019-04-06T18:59:06.168Z,31.10
2019-04-06T19:01:34.821Z,31.85
2019-04-06T19:04:02.965Z,31.02
2019-04-06T19:06:31.024Z,31.62
2019-04-06T19:08:59.609Z,32.03
2019-04-06T19:11:27.677Z,32.63
2019-04-06T19:13:55.743Z,33.38
2019-04-06T19:16:23.798Z,33.38
2019-04-06T19:18:52.045Z,34.13
2019-04-06T19:21:20.172Z,34.48
2019-04-06T19:23:48.355Z,33.35
2019-04-06T19:26:16.466Z,34.70
2019-04-06T19:28:44.699Z,35.48
2019-04-06T19:31:12.795Z,35.23
2019-04-06T19:33:40.991Z,33.90
2019-04-06T19:36:09.036Z,33.90
2019-04-06T19:38:37.226Z,32.58
2019-04-06T19:41:05.411Z,34.43
2019-04-06T19:43:33.500Z,32.17
2019-04-06T19:46:02.217Z,31.57
2019-04-06T19:48:30.533Z,32.98
2019-04-06T19:50:59.014Z,31.57
2019-04-06T19:53:27.746Z,33.30
2019-04-06T19:55:56.337Z,32.88
2019-04-06T19:58:24.548Z,31.65
2019-04-06T20:00:52.633Z,30.97
2019-04-06T20:03:21.339Z,31.00
2019-04-06T20:05:49.536Z,31.57
2019-04-06T20:08:17.612Z,31.75
2019-04-06T20:10:45.661Z,30.82
2019-04-06T20:13:13.731Z,30.27
2019-04-06T20:15:41.809Z,31.85
2019-04-06T20:18:10.203Z,30.77
2019-04-06T20:20:38.828Z,30.15
2019-04-06T20:23:07.295Z,30.90
2019-04-06T20:25:35.422Z,30.43
2019-04-06T20:28:03.497Z,31.17
2019-04-06T20:30:32.030Z,32.20
2019-04-06T20:33:00.367Z,31.27
2019-04-06T20:35:28.484Z,30.00
2019-04-06T20:37:56.538Z,31.23
2019-04-06T20:40:24.573Z,31.93
2019-04-06T20:42:52.735Z,30.82
2019-04-06T20:45:20.789Z,30.75
2019-04-06T20:47:48.891Z,30.48
2019-04-06T20:50:17.014Z,30.15
2019-04-06T20:52:45.107Z,31.80
2019-04-06T20:55:13.163Z,30.72
2019-04-06T20:57:41.281Z,31.48
2019-04-06T21:00:09.705Z,31.40
2019-04-06T21:02:37.942Z,31.40
2019-04-06T21:05:06.084Z,31.05
2019-04-06T21:07:34.261Z,31.25
2019-04-06T21:10:02.323Z,32.30
2019-04-06T21:12:30.443Z,30.65
2019-04-06T21:14:58.866Z,31.23
2019-04-06T21:17:26.995Z,30.60
2019-04-06T21:19:56.024Z,30.80
2019-04-06T21:22:24.211Z,33.02
2019-04-06T21:24:52.753Z,31.10
2019-04-06T21:27:21.416Z,31.55
2019-04-06T21:29:49.620Z,31.12
2019-04-06T21:32:18.036Z,31.55
2019-04-06T21:34:46.176Z,28.52
2019-04-06T21:37:14.466Z,28.25
2019-04-06T21:39:42.759Z,26.17
2019-04-06T21:42:10.841Z,25.52
2019-04-06T21:44:38.940Z,26.27
2019-04-06T21:47:08.049Z,26.57
2019-04-06T21:49:37.182Z,26.55
2019-04-06T21:52:05.386Z,25.62
2019-04-06T21:54:34.371Z,27.07
2019-04-06T21:57:02.789Z,26.90
2019-04-06T21:59:31.140Z,26.50
2019-04-06T22:01:59.290Z,26.68
2019-04-06T22:04:27.766Z,27.95
2019-04-06T22:06:56.354Z,27.62
2019-04-06T22:09:24.452Z,28.12
2019-04-06T22:11:53.097Z,28.75
2019-04-06T22:14:21.204Z,29.48
2019-04-06T22:16:49.352Z,28.92
2019-04-06T22:19:17.499Z,28.50
2019-04-06T22:21:46.207Z,29.55
2019-04-06T22:24:14.897Z,29.55
2019-04-06T22:26:43.016Z,29.55
2019-04-06T22:29:11.752Z,29.70
2019-04-06T22:31:39.892Z,29.60
2019-04-06T22:34:08.101Z,30.57
2019-04-06T22:36:36.855Z,29.40
2019-04-06T22:39:06.163Z,30.52
2019-04-06T22:41:34.179Z,30.20
2019-04-06T22:44:02.274Z,32.35
2019-04-06T22:46:30.339Z,30.25
2019-04-06T22:48:59.520Z,31.65
2019-04-06T22:51:28.113Z,32.98
2019-04-06T22:53:56.701Z,31.30
2019-04-06T22:56:24.977Z,31.87
2019-04-06T22:58:53.066Z,31.42
2019-04-06T23:01:21.972Z,31.25
2019-04-06T23:04:07.587Z,31.70
2019-04-06T23:06:49.750Z,32.13
2019-04-06T23:09:17.871Z,32.38
2019-04-06T23:11:45.954Z,32.83
2019-04-06T23:14:14.073Z,32.75
2019-04-06T23:16:42.511Z,32.63
2019-04-06T23:19:10.983Z,31.95
2019-04-06T23:21:39.695Z,32.73
2019-04-06T23:24:08.373Z,32.35
2019-04-06T23:26:36.425Z,31.57
2019-04-06T23:29:05.162Z,32.83
2019-04-06T23:31:33.474Z,32.28
2019-04-06T23:34:02.029Z,33.55
2019-04-06T23:36:30.462Z,33.53
2019-04-06T23:38:58.565Z,32.95
2019-04-06T23:41:26.785Z,32.80
2019-04-06T23:43:54.857Z,33.00
2019-04-06T23:46:23.326Z,33.73
2019-04-06T23:48:52.068Z,33.18
2019-04-06T23:51:21.031Z,33.15
2019-04-06T23:53:49.112Z,33.33
2019-04-06T23:56:17.187Z,33.15
2019-04-06T23:58:45.227Z,33.92
